Time;durP1;ratioP1;P1;durP2;ratioP2;P2;SDS_P1;SDS_P2;PMS_P1;PMS_P2;Temp;Humidity;BMP_temperature;BMP_pressure;BME280_temperature;BME280_humidity;BME280_pressure;Samples;Min_cycle;Max_cycle;Signal;HPM_P1;HPM_P2
2024/03/17 00:02:23;;;;;;;3.72;1.17;;;5.80;99.90;;;;;;4999061;28;20442;-69
2024/03/17 00:04:49;;;;;;;6.05;0.90;;;5.70;99.90;;;;;;4999325;28;20029;-69
2024/03/17 00:07:15;;;;;;;6.03;0.85;;;5.80;99.90;;;;;;4994803;28;20022;-69
2024/03/17 00:09:41;;;;;;;8.07;0.95;;;5.70;99.90;;;;;;5000241;28;20100;-65
2024/03/17 00:12:07;;;;;;;6.38;0.95;;;5.70;99.90;;;;;;4994755;28;20037;-66
2024/03/17 00:14:34;;;;;;;6.70;1.40;;;5.70;99.90;;;;;;4999644;28;20029;-65
2024/03/17 00:17:01;;;;;;;8.45;1.15;;;5.70;99.90;;;;;;4998356;28;20034;-65
2024/03/17 00:19:26;;;;;;;8.52;1.20;;;5.70;99.90;;;;;;4998463;28;20045;-65
2024/03/17 00:21:53;;;;;;;2.92;0.70;;;5.70;99.90;;;;;;4999540;28;20037;-65
2024/03/17 00:24:19;;;;;;;8.52;1.55;;;5.70;99.90;;;;;;4998778;28;20025;-65
2024/03/17 00:26:51;;;;;;;7.05;1.15;;;5.70;99.90;;;;;;4999832;28;20030;-66
2024/03/17 00:29:17;;;;;;;4.40;1.17;;;5.70;99.90;;;;;;4990122;28;20413;-69
2024/03/17 00:31:43;;;;;;;3.55;0.77;;;5.70;99.90;;;;;;4996872;28;20041;-69
2024/03/17 00:34:09;;;;;;;4.25;0.80;;;5.60;99.90;;;;;;4996629;28;20037;-69
2024/03/17 00:36:35;;;;;;;3.15;0.70;;;5.70;99.90;;;;;;4997376;28;20038;-68
2024/03/17 00:39:01;;;;;;;7.53;0.80;;;5.60;99.90;;;;;;4998912;28;20034;-69
2024/03/17 00:41:27;;;;;;;7.75;1.02;;;5.60;99.90;;;;;;4999612;28;20036;-69
2024/03/17 00:43:52;;;;;;;3.28;0.90;;;5.60;99.90;;;;;;4995671;28;20557;-69
2024/03/17 00:46:21;;;;;;;9.48;1.35;;;5.50;99.90;;;;;;5001176;28;20057;-69
2024/03/17 00:48:50;;;;;;;8.85;1.17;;;5.40;99.90;;;;;;5001592;28;20036;-69
2024/03/17 00:51:16;;;;;;;9.80;1.25;;;5.40;99.90;;;;;;4999699;28;20033;-69
2024/03/17 00:53:42;;;;;;;5.90;1.17;;;5.40;99.90;;;;;;5001636;28;20037;-69
2024/03/17 00:56:08;;;;;;;4.10;1.00;;;5.30;99.90;;;;;;5001899;28;20057;-69
2024/03/17 00:58:34;;;;;;;3.80;0.80;;;5.30;99.90;;;;;;5000285;28;20041;-69
2024/03/17 01:01:00;;;;;;;8.18;1.23;;;5.30;99.90;;;;;;5000957;28;20034;-68
2024/03/17 01:03:27;;;;;;;5.63;1.35;;;5.20;99.90;;;;;;4999400;28;20107;-69
2024/03/17 01:05:53;;;;;;;7.57;1.30;;;5.20;99.90;;;;;;4999676;28;20149;-65
2024/03/17 01:08:20;;;;;;;2.67;0.85;;;5.20;99.90;;;;;;5000492;28;20022;-65
2024/03/17 01:10:49;;;;;;;4.20;1.00;;;5.10;99.90;;;;;;5001867;28;20014;-65
2024/03/17 01:13:16;;;;;;;3.80;0.77;;;5.10;99.90;;;;;;5002656;28;20037;-65
2024/03/17 01:15:42;;;;;;;7.90;1.10;;;5.10;99.90;;;;;;5000556;28;20038;-65
2024/03/17 01:18:08;;;;;;;4.38;1.25;;;5.10;99.90;;;;;;4999194;28;20176;-65
2024/03/17 01:20:36;;;;;;;6.07;1.27;;;5.00;99.90;;;;;;5003315;28;20364;-65
2024/03/17 01:23:02;;;;;;;12.50;1.25;;;5.00;99.90;;;;;;4999621;28;20056;-65
2024/03/17 01:25:29;;;;;;;9.07;1.00;;;5.00;99.90;;;;;;5002647;28;20034;-65
2024/03/17 01:27:56;;;;;;;3.95;0.68;;;5.00;99.90;;;;;;5001389;28;20084;-65
2024/03/17 01:30:22;;;;;;;6.05;1.17;;;5.00;99.90;;;;;;5001358;28;20664;-65
2024/03/17 01:32:48;;;;;;;5.55;1.00;;;5.00;99.90;;;;;;5002744;28;20069;-65
2024/03/17 01:35:15;;;;;;;6.82;0.90;;;4.90;99.90;;;;;;4999128;28;20037;-65
2024/03/17 01:37:42;;;;;;;4.93;0.90;;;4.90;99.90;;;;;;4999737;28;20034;-65
2024/03/17 01:40:09;;;;;;;3.70;0.90;;;4.90;99.90;;;;;;5001889;28;20026;-65
2024/03/17 01:42:39;;;;;;;9.13;1.20;;;4.90;99.90;;;;;;4995531;28;20517;-65
2024/03/17 01:45:17;;;;;;;4.25;0.75;;;4.90;99.90;;;;;;4999275;28;20379;-65
2024/03/17 01:47:43;;;;;;;4.47;0.90;;;4.90;99.90;;;;;;4997336;28;20080;-65
2024/03/17 01:50:11;;;;;;;12.43;1.15;;;4.90;99.90;;;;;;5013748;28;20030;-65
2024/03/17 01:52:37;;;;;;;3.13;1.33;;;4.90;99.90;;;;;;4997268;28;20462;-65
2024/03/17 01:55:03;;;;;;;6.53;1.08;;;4.90;99.90;;;;;;4994029;28;20104;-65
2024/03/17 01:57:29;;;;;;;6.22;0.88;;;4.90;99.90;;;;;;4996400;28;20816;-65
2024/03/17 01:59:57;;;;;;;6.45;1.13;;;4.90;99.90;;;;;;5000189;28;20049;-65
2024/03/17 02:02:22;;;;;;;7.72;0.80;;;4.90;99.90;;;;;;4993595;28;20433;-65
2024/03/17 02:04:49;;;;;;;6.05;1.38;;;4.90;99.90;;;;;;4997372;28;20034;-65
2024/03/17 02:07:15;;;;;;;7.32;1.70;;;4.90;99.90;;;;;;5016427;28;20042;-65
2024/03/17 02:09:43;;;;;;;7.28;1.58;;;4.90;99.90;;;;;;4998700;28;20026;-65
2024/03/17 02:12:09;;;;;;;6.40;1.77;;;4.90;99.90;;;;;;4999542;28;20038;-65
2024/03/17 02:14:35;;;;;;;5.72;1.27;;;4.80;99.90;;;;;;4998276;28;20018;-65
2024/03/17 02:17:02;;;;;;;3.72;0.90;;;4.90;99.90;;;;;;4996234;28;20509;-66
2024/03/17 02:19:28;;;;;;;4.93;1.10;;;4.80;99.90;;;;;;4996423;28;20046;-65
2024/03/17 02:21:53;;;;;;;3.97;1.02;;;4.80;99.90;;;;;;4992897;28;20041;-65
2024/03/17 02:24:19;;;;;;;15.10;1.40;;;4.80;99.90;;;;;;4994005;28;20122;-65
2024/03/17 02:26:45;;;;;;;8.02;1.27;;;4.80;99.90;;;;;;4991781;28;20197;-66
2024/03/17 02:29:11;;;;;;;8.75;1.20;;;4.80;99.90;;;;;;4997878;28;20025;-65
2024/03/17 02:31:36;;;;;;;5.28;1.00;;;4.80;99.90;;;;;;4991146;28;20041;-66
2024/03/17 02:34:02;;;;;;;13.20;1.75;;;4.80;99.90;;;;;;4996970;28;20504;-65
2024/03/17 02:36:28;;;;;;;6.75;2.15;;;4.80;99.90;;;;;;4995699;28;20037;-65
2024/03/17 02:41:42;;;;;;;5.20;1.42;;;4.80;99.90;;;;;;4996763;28;20030;-66
2024/03/17 02:44:08;;;;;;;8.27;1.05;;;4.80;99.90;;;;;;4997967;28;20771;-65
2024/03/17 02:46:34;;;;;;;5.93;0.93;;;4.80;99.90;;;;;;4992570;28;20088;-65
2024/03/17 02:49:00;;;;;;;7.40;1.55;;;4.80;99.90;;;;;;4995745;28;20030;-65
2024/03/17 02:51:26;;;;;;;7.22;0.98;;;4.80;99.90;;;;;;4998535;28;20100;-65
2024/03/17 02:53:52;;;;;;;7.60;1.42;;;4.80;99.90;;;;;;5001600;28;20428;-65
2024/03/17 02:56:19;;;;;;;7.53;1.20;;;4.80;99.90;;;;;;4996542;28;20511;-65
2024/03/17 02:58:46;;;;;;;6.80;1.30;;;4.80;99.90;;;;;;5002535;28;20568;-65
2024/03/17 03:01:13;;;;;;;6.15;1.23;;;4.80;99.90;;;;;;4994624;28;20567;-65
2024/03/17 03:03:38;;;;;;;7.82;1.48;;;4.80;99.90;;;;;;4995897;28;20034;-65
2024/03/17 03:06:08;;;;;;;8.90;2.22;;;4.80;99.90;;;;;;5009013;28;20683;-65
2024/03/17 03:08:38;;;;;;;3.83;1.45;;;4.80;99.90;;;;;;4990860;28;20764;-69
2024/03/17 03:11:06;;;;;;;5.13;1.02;;;4.80;99.90;;;;;;4989592;28;20149;-68
2024/03/17 03:13:31;;;;;;;6.47;1.17;;;4.80;99.90;;;;;;4997327;28;20029;-68
2024/03/17 03:15:57;;;;;;;17.40;1.65;;;4.80;99.90;;;;;;4995995;28;20035;-68
2024/03/17 03:18:23;;;;;;;7.97;1.27;;;4.80;99.90;;;;;;4998315;28;20053;-68
2024/03/17 03:20:55;;;;;;;8.90;1.20;;;4.80;99.90;;;;;;4998216;28;20035;-69
2024/03/17 03:23:21;;;;;;;9.73;1.27;;;4.80;99.90;;;;;;4995612;28;20034;-69
2024/03/17 03:25:47;;;;;;;3.70;0.85;;;4.80;99.90;;;;;;4996526;28;20040;-69
2024/03/17 03:28:13;;;;;;;10.95;1.67;;;4.80;99.90;;;;;;4996533;28;20037;-69
2024/03/17 03:30:39;;;;;;;7.57;1.55;;;4.80;99.90;;;;;;4996098;28;20034;-65
2024/03/17 03:33:05;;;;;;;11.35;1.73;;;4.80;99.90;;;;;;4997253;28;20033;-65
2024/03/17 03:35:31;;;;;;;5.80;1.20;;;4.80;99.90;;;;;;4992069;28;20048;-65
2024/03/17 03:37:58;;;;;;;7.47;1.13;;;4.80;99.90;;;;;;4994784;28;20026;-66
2024/03/17 03:40:27;;;;;;;6.70;1.20;;;4.80;99.90;;;;;;5006776;28;20410;-65
2024/03/17 03:42:53;;;;;;;6.90;1.05;;;4.80;99.90;;;;;;4993785;28;20058;-66
2024/03/17 03:45:20;;;;;;;10.18;0.90;;;4.80;99.90;;;;;;4986872;28;20125;-65
2024/03/17 03:47:46;;;;;;;8.95;1.58;;;4.80;99.90;;;;;;4988095;28;20035;-65
2024/03/17 03:50:14;;;;;;;5.68;1.10;;;4.80;99.90;;;;;;4990655;28;20108;-65
2024/03/17 03:52:41;;;;;;;10.70;1.40;;;4.80;99.90;;;;;;4990731;28;20041;-65
2024/03/17 03:55:14;;;;;;;8.48;1.25;;;4.80;99.90;;;;;;4986334;28;20129;-66
2024/03/17 03:57:47;;;;;;;5.85;1.25;;;4.80;99.90;;;;;;4992984;28;20736;-65
2024/03/17 04:00:21;;;;;;;12.63;1.88;;;4.80;99.90;;;;;;4993682;28;20607;-65
2024/03/17 04:02:48;;;;;;;8.10;1.15;;;4.80;99.90;;;;;;4985616;28;20049;-65
2024/03/17 04:05:14;;;;;;;9.05;1.63;;;4.80;99.90;;;;;;4988533;28;20111;-66
2024/03/17 04:07:40;;;;;;;8.88;1.15;;;4.80;99.90;;;;;;4989432;28;20025;-65
2024/03/17 04:10:06;;;;;;;8.93;1.58;;;4.70;99.90;;;;;;4989259;28;20052;-65
2024/03/17 04:12:32;;;;;;;5.40;1.20;;;4.70;99.90;;;;;;4990868;28;20455;-65
2024/03/17 04:14:59;;;;;;;3.95;0.98;;;4.60;99.90;;;;;;4991652;28;20140;-68
2024/03/17 04:17:25;;;;;;;8.73;1.42;;;4.60;99.90;;;;;;4995612;28;20030;-69
2024/03/17 04:19:52;;;;;;;7.78;1.27;;;4.60;99.90;;;;;;4992583;28;20030;-69
2024/03/17 04:22:19;;;;;;;3.28;1.33;;;4.60;99.90;;;;;;4992128;28;20034;-66
2024/03/17 04:24:46;;;;;;;10.30;1.33;;;4.60;99.90;;;;;;4992390;28;20141;-65
2024/03/17 04:27:13;;;;;;;5.80;1.25;;;4.50;99.90;;;;;;4988735;28;20081;-66
2024/03/17 04:29:40;;;;;;;6.28;1.00;;;4.50;99.90;;;;;;4990495;28;20045;-65
2024/03/17 04:32:06;;;;;;;14.35;2.55;;;4.50;99.90;;;;;;4992596;28;20104;-65
2024/03/17 04:34:32;;;;;;;10.50;1.88;;;4.50;99.90;;;;;;4990318;28;20046;-65
2024/03/17 04:36:58;;;;;;;5.60;0.95;;;4.50;99.90;;;;;;4990205;28;20172;-65
2024/03/17 04:39:25;;;;;;;9.27;1.33;;;4.50;99.90;;;;;;4988613;28;20049;-65
2024/03/17 04:41:51;;;;;;;16.45;1.95;;;4.40;99.90;;;;;;4993811;28;20623;-65
2024/03/17 04:44:17;;;;;;;10.75;1.13;;;4.40;99.90;;;;;;4990089;28;20034;-66
2024/03/17 04:46:44;;;;;;;7.80;1.15;;;4.40;99.90;;;;;;4988830;28;20053;-65
2024/03/17 04:49:09;;;;;;;11.55;1.20;;;4.30;99.90;;;;;;4993753;28;20038;-65
2024/03/17 04:51:35;;;;;;;9.98;1.40;;;4.30;99.90;;;;;;4989641;28;20103;-68
2024/03/17 04:54:05;;;;;;;5.38;1.17;;;4.30;99.90;;;;;;4991296;28;20022;-69
2024/03/17 04:56:31;;;;;;;4.22;1.10;;;4.30;99.90;;;;;;4988764;28;20467;-69
2024/03/17 04:58:57;;;;;;;7.13;0.90;;;4.30;99.90;;;;;;4997514;28;20057;-68
2024/03/17 05:01:24;;;;;;;4.80;0.77;;;4.30;99.90;;;;;;4990320;28;20289;-68
2024/03/17 05:03:53;;;;;;;6.97;1.30;;;4.20;99.90;;;;;;4990498;28;20114;-69
2024/03/17 05:06:19;;;;;;;7.75;1.35;;;4.20;99.90;;;;;;4991275;28;20030;-69
2024/03/17 05:08:45;;;;;;;16.67;1.73;;;4.30;99.90;;;;;;4992026;28;20026;-65
2024/03/17 05:11:11;;;;;;;9.32;1.60;;;4.30;99.90;;;;;;4987757;28;20030;-68
2024/03/17 05:13:40;;;;;;;5.03;1.08;;;4.30;99.90;;;;;;4996308;28;20060;-69
2024/03/17 05:16:06;;;;;;;16.55;1.80;;;4.20;99.90;;;;;;4990300;28;20038;-69
2024/03/17 05:18:35;;;;;;;6.60;1.60;;;4.20;99.90;;;;;;4992635;28;20036;-68
2024/03/17 05:21:05;;;;;;;9.02;1.95;;;4.20;99.90;;;;;;4996297;28;20026;-69
2024/03/17 05:23:32;;;;;;;6.22;2.17;;;4.20;99.90;;;;;;4991938;28;20030;-68
2024/03/17 05:25:59;;;;;;;7.75;1.98;;;4.20;99.90;;;;;;4996178;28;20111;-68
2024/03/17 05:28:26;;;;;;;3.78;1.10;;;4.20;99.90;;;;;;4986204;28;20029;-69
2024/03/17 05:30:52;;;;;;;10.32;1.40;;;4.20;99.90;;;;;;4991768;28;20026;-69
2024/03/17 05:33:21;;;;;;;1.92;0.95;;;4.20;99.90;;;;;;4998851;28;20052;-68
2024/03/17 05:35:55;;;;;;;5.57;1.60;;;4.10;99.90;;;;;;4992631;28;20031;-69
2024/03/17 05:38:22;;;;;;;6.47;1.38;;;4.10;99.90;;;;;;4998240;28;20033;-69
2024/03/17 05:40:53;;;;;;;6.13;1.10;;;4.20;99.90;;;;;;4994942;28;20824;-68
2024/03/17 05:43:19;;;;;;;10.02;1.60;;;4.20;99.90;;;;;;4998497;28;20084;-69
2024/03/17 05:45:45;;;;;;;9.20;1.30;;;4.20;99.90;;;;;;5000583;28;20042;-69
2024/03/17 05:48:11;;;;;;;4.25;0.90;;;4.30;99.90;;;;;;4994633;28;20041;-65
2024/03/17 05:50:36;;;;;;;7.97;1.42;;;4.30;99.90;;;;;;4992547;28;20026;-65
2024/03/17 05:53:03;;;;;;;11.95;1.92;;;4.30;99.90;;;;;;4991622;28;20041;-66
2024/03/17 05:55:28;;;;;;;9.05;1.42;;;4.30;99.90;;;;;;4993125;28;20029;-65
2024/03/17 05:57:54;;;;;;;7.85;1.50;;;4.40;99.90;;;;;;4994932;28;20041;-65
2024/03/17 06:00:20;;;;;;;5.97;1.48;;;4.50;99.90;;;;;;4990105;28;20031;-65
2024/03/17 06:02:47;;;;;;;9.73;2.30;;;4.50;99.90;;;;;;4991996;28;20025;-68
2024/03/17 06:05:14;;;;;;;5.80;1.48;;;4.50;99.90;;;;;;4996919;28;20045;-68
2024/03/17 06:07:40;;;;;;;11.30;1.50;;;4.60;99.90;;;;;;4997948;28;20500;-69
2024/03/17 06:10:07;;;;;;;5.25;1.10;;;4.70;99.90;;;;;;4998978;28;20029;-65
2024/03/17 06:12:33;;;;;;;7.50;1.70;;;4.70;99.90;;;;;;4993820;28;20030;-65
2024/03/17 06:14:59;;;;;;;6.93;1.70;;;4.80;99.90;;;;;;4996975;28;20040;-65
2024/03/17 06:17:26;;;;;;;7.53;1.20;;;4.80;99.90;;;;;;4992371;28;20031;-65
2024/03/17 06:19:52;;;;;;;11.65;2.03;;;4.80;99.90;;;;;;4990967;28;20458;-65
2024/03/17 06:22:17;;;;;;;8.18;1.70;;;4.90;99.90;;;;;;4991661;28;20041;-66
2024/03/17 06:24:43;;;;;;;11.52;1.42;;;5.00;99.90;;;;;;4989554;28;20033;-65
2024/03/17 06:27:09;;;;;;;5.43;1.40;;;5.00;99.90;;;;;;4994561;28;20585;-65
2024/03/17 06:29:35;;;;;;;7.45;2.00;;;5.10;99.90;;;;;;4994273;28;20027;-66
2024/03/17 06:32:01;;;;;;;7.63;1.60;;;5.10;99.90;;;;;;4994526;28;20113;-65
2024/03/17 06:34:27;;;;;;;12.82;1.80;;;5.20;99.90;;;;;;4990586;28;20019;-65
2024/03/17 06:36:53;;;;;;;9.75;2.00;;;5.30;99.90;;;;;;4986905;28;20042;-66
2024/03/17 06:39:21;;;;;;;11.55;1.60;;;5.40;99.90;;;;;;4990050;28;20038;-65
2024/03/17 06:41:47;;;;;;;10.38;1.70;;;5.40;99.90;;;;;;4991335;28;20180;-68
2024/03/17 06:44:12;;;;;;;8.73;1.42;;;5.50;99.90;;;;;;4993782;28;20033;-69
2024/03/17 06:46:38;;;;;;;4.78;1.58;;;5.50;99.90;;;;;;4996517;28;20109;-69
2024/03/17 06:49:04;;;;;;;10.68;1.40;;;5.60;99.90;;;;;;4991908;28;20516;-69
2024/03/17 06:51:29;;;;;;;10.68;1.67;;;5.70;99.90;;;;;;4999097;28;20650;-69
2024/03/17 06:53:55;;;;;;;13.77;2.08;;;5.70;99.90;;;;;;4999356;28;20505;-69
2024/03/17 06:56:21;;;;;;;13.63;1.40;;;5.90;99.90;;;;;;4992049;28;20030;-69
2024/03/17 06:58:47;;;;;;;7.70;1.58;;;5.90;99.90;;;;;;4991773;28;20227;-69
2024/03/17 07:01:13;;;;;;;9.15;1.40;;;6.00;99.90;;;;;;4994369;28;20038;-69
2024/03/17 07:03:38;;;;;;;8.18;1.50;;;6.10;99.90;;;;;;4993054;28;20030;-69
2024/03/17 07:06:07;;;;;;;9.93;1.70;;;6.10;99.90;;;;;;4997866;28;20045;-69
2024/03/17 07:08:33;;;;;;;6.78;2.13;;;6.20;99.90;;;;;;4991739;28;20136;-68
2024/03/17 07:11:00;;;;;;;9.82;1.55;;;6.00;99.90;;;;;;4995781;28;20849;-68
2024/03/17 07:13:32;;;;;;;6.65;1.67;;;6.00;99.90;;;;;;4993330;28;20039;-69
2024/03/17 07:15:59;;;;;;;6.13;1.67;;;6.20;99.90;;;;;;4990428;28;20040;-66
2024/03/17 07:18:26;;;;;;;12.32;2.05;;;6.30;99.90;;;;;;4989433;28;20393;-66
2024/03/17 07:20:52;;;;;;;3.45;1.10;;;6.40;99.90;;;;;;4992466;28;20176;-65
2024/03/17 07:23:18;;;;;;;12.15;1.63;;;6.60;99.90;;;;;;4996401;28;20034;-65
2024/03/17 07:25:55;;;;;;;9.95;1.90;;;6.90;99.90;;;;;;5002513;28;20092;-66
2024/03/17 07:28:22;;;;;;;15.40;2.03;;;7.50;99.90;;;;;;4992251;28;20073;-66
2024/03/17 07:30:49;;;;;;;8.10;2.22;;;8.00;99.90;;;;;;4994022;28;20063;-66
2024/03/17 07:33:15;;;;;;;25.80;7.05;;;8.60;99.90;;;;;;4990259;28;20384;-66
2024/03/17 07:35:51;;;;;;;17.67;5.82;;;9.40;99.90;;;;;;4990149;28;20030;-66
2024/03/17 07:38:18;;;;;;;20.30;6.57;;;10.50;99.90;;;;;;4992605;28;20038;-66
2024/03/17 07:40:46;;;;;;;10.18;2.13;;;11.40;99.90;;;;;;4989522;28;20046;-66
2024/03/17 07:43:12;;;;;;;12.65;2.25;;;11.70;99.40;;;;;;4989355;28;20112;-66
2024/03/17 07:45:38;;;;;;;14.40;6.50;;;11.80;99.30;;;;;;4990872;28;20661;-66
2024/03/17 07:48:04;;;;;;;8.00;3.25;;;12.20;98.60;;;;;;4990696;28;20113;-67
2024/03/17 07:50:29;;;;;;;9.25;1.52;;;12.50;97.60;;;;;;4988532;28;20030;-67
2024/03/17 07:52:55;;;;;;;9.60;1.88;;;12.90;96.50;;;;;;4993650;28;20111;-67
2024/03/17 07:55:21;;;;;;;6.85;2.22;;;13.20;94.00;;;;;;4995213;28;20637;-67
2024/03/17 07:57:46;;;;;;;13.27;2.38;;;13.20;93.60;;;;;;4987448;28;20155;-67
2024/03/17 08:00:15;;;;;;;9.75;1.50;;;13.50;93.30;;;;;;4988217;28;20096;-67
2024/03/17 08:02:47;;;;;;;8.48;1.77;;;13.80;92.90;;;;;;4990953;28;20095;-67
2024/03/17 08:05:13;;;;;;;8.85;2.00;;;14.40;92.10;;;;;;4990445;28;20581;-67
2024/03/17 08:07:42;;;;;;;10.90;1.80;;;14.90;90.80;;;;;;4990374;28;20068;-69
2024/03/17 08:10:08;;;;;;;11.73;1.42;;;15.20;88.90;;;;;;4990650;28;20034;-70
2024/03/17 08:12:34;;;;;;;10.48;2.08;;;15.20;85.80;;;;;;4994646;28;20072;-70
2024/03/17 08:14:59;;;;;;;9.15;2.47;;;15.00;86.40;;;;;;4989929;28;20109;-71
2024/03/17 08:17:25;;;;;;;10.93;2.05;;;14.90;83.70;;;;;;4992337;28;20787;-71
2024/03/17 08:19:51;;;;;;;12.35;2.97;;;14.50;84.30;;;;;;4994453;28;20501;-71
2024/03/17 08:22:17;;;;;;;11.65;2.55;;;14.00;86.70;;;;;;4993965;28;20045;-70
2024/03/17 08:24:43;;;;;;;13.00;2.45;;;13.70;88.10;;;;;;4996617;28;20145;-70
2024/03/17 08:27:09;;;;;;;8.65;1.40;;;13.50;87.70;;;;;;4993221;28;20048;-70
2024/03/17 08:29:35;;;;;;;8.60;1.92;;;13.20;87.20;;;;;;4991816;28;20058;-71
2024/03/17 08:32:01;;;;;;;6.53;1.75;;;12.80;90.20;;;;;;4994547;28;20103;-71
2024/03/17 08:34:27;;;;;;;9.98;2.47;;;12.60;91.10;;;;;;4990979;28;20535;-70
2024/03/17 08:36:53;;;;;;;7.72;1.70;;;12.50;91.20;;;;;;4994427;28;20095;-71
2024/03/17 08:39:18;;;;;;;6.95;1.80;;;12.40;92.00;;;;;;4992781;28;20034;-70
2024/03/17 08:41:45;;;;;;;7.50;1.60;;;12.20;90.60;;;;;;4998841;28;20049;-70
2024/03/17 08:44:11;;;;;;;8.23;2.03;;;12.20;91.40;;;;;;4992306;28;20066;-69
2024/03/17 08:46:37;;;;;;;11.60;2.70;;;12.30;91.00;;;;;;4990691;28;20230;-69
2024/03/17 08:49:03;;;;;;;10.05;1.95;;;12.50;91.10;;;;;;4991490;28;20057;-69
2024/03/17 08:51:28;;;;;;;9.90;1.77;;;12.60;90.80;;;;;;4990455;28;20081;-69
2024/03/17 08:53:54;;;;;;;4.93;1.30;;;12.60;90.30;;;;;;4997469;28;20111;-69
2024/03/17 08:56:20;;;;;;;9.88;1.45;;;12.50;91.40;;;;;;4995990;28;20044;-68
2024/03/17 08:58:46;;;;;;;18.40;2.30;;;12.30;90.60;;;;;;4992719;28;20033;-69
2024/03/17 09:01:16;;;;;;;10.25;2.33;;;12.30;91.20;;;;;;4996632;28;20048;-69
2024/03/17 09:03:42;;;;;;;9.45;1.70;;;12.40;90.50;;;;;;4987745;28;20490;-70
2024/03/17 09:06:16;;;;;;;7.78;1.80;;;12.50;90.50;;;;;;4996133;28;20041;-69
2024/03/17 09:08:42;;;;;;;6.95;1.50;;;12.60;90.60;;;;;;4997395;28;20026;-69
2024/03/17 09:11:13;;;;;;;6.07;1.45;;;12.50;89.10;;;;;;4996856;28;20033;-69
2024/03/17 09:13:38;;;;;;;12.32;1.40;;;12.20;89.60;;;;;;4995570;28;20117;-69
2024/03/17 09:16:04;;;;;;;9.18;1.40;;;12.00;90.00;;;;;;4997528;28;20044;-70
2024/03/17 09:18:32;;;;;;;14.75;1.83;;;12.00;90.80;;;;;;4996438;28;20061;-69
2024/03/17 09:21:03;;;;;;;6.57;1.52;;;12.70;90.20;;;;;;4998178;28;20064;-70
2024/03/17 09:23:29;;;;;;;15.32;1.65;;;13.50;88.00;;;;;;5000395;28;20577;-77
2024/03/17 09:26:03;;;;;;;6.82;1.35;;;14.60;83.90;;;;;;4993245;28;20484;-69
2024/03/17 09:28:30;;;;;;;10.85;1.67;;;15.50;82.70;;;;;;4996534;28;20049;-70
2024/03/17 09:30:57;;;;;;;7.57;1.58;;;16.30;77.80;;;;;;4994194;28;20137;-70
2024/03/17 09:33:24;;;;;;;5.85;1.30;;;16.60;76.00;;;;;;4997239;28;20100;-70
2024/03/17 09:35:58;;;;;;;3.08;1.25;;;16.40;73.00;;;;;;4994664;28;20030;-70
2024/03/17 09:38:24;;;;;;;11.75;1.77;;;15.90;74.50;;;;;;4995589;28;20041;-69
2024/03/17 09:40:52;;;;;;;13.20;4.53;;;15.30;73.40;;;;;;4999867;28;20037;-70
2024/03/17 09:43:22;;;;;;;15.32;4.07;;;14.80;75.80;;;;;;4997585;28;20045;-69
2024/03/17 09:45:57;;;;;;;7.28;1.63;;;14.70;77.40;;;;;;4995183;28;20023;-69
2024/03/17 09:48:29;;;;;;;9.75;1.83;;;14.50;76.10;;;;;;4997297;28;20052;-69
2024/03/17 09:50:56;;;;;;;12.73;3.17;;;14.30;78.20;;;;;;4990925;28;20100;-69
2024/03/17 09:53:26;;;;;;;6.47;1.60;;;14.10;79.00;;;;;;4994835;28;20029;-68
2024/03/17 09:55:56;;;;;;;11.77;1.30;;;13.80;79.80;;;;;;4983550;28;20122;-70
2024/03/17 09:58:22;;;;;;;9.30;1.75;;;13.70;80.10;;;;;;4991054;28;20833;-74
2024/03/17 10:00:48;;;;;;;7.78;3.20;;;13.70;79.40;;;;;;4992485;28;20026;-70
2024/03/17 10:04:01;;;;;;;8.38;1.95;;;14.20;79.00;;;;;;4996343;28;20552;-71
2024/03/17 10:06:30;;;;;;;7.03;1.35;;;14.80;76.60;;;;;;4995611;28;20042;-70
2024/03/17 10:09:15;;;;;;;7.18;1.40;;;14.90;73.50;;;;;;5001573;28;20029;-70
2024/03/17 10:11:41;;;;;;;6.38;1.02;;;14.70;74.10;;;;;;5000260;28;20044;-70
2024/03/17 10:14:08;;;;;;;5.63;1.35;;;14.40;73.20;;;;;;4989713;28;20023;-72
2024/03/17 10:16:38;;;;;;;10.95;1.33;;;14.60;75.80;;;;;;4992654;28;20112;-70
2024/03/17 10:19:23;;;;;;;8.27;1.05;;;15.30;73.90;;;;;;4998840;28;20045;-71
2024/03/17 10:21:49;;;;;;;6.00;1.40;;;16.10;69.80;;;;;;4997545;28;20034;-71
2024/03/17 10:24:23;;;;;;;3.20;0.85;;;16.30;70.00;;;;;;4994125;28;20056;-71
2024/03/17 10:26:51;;;;;;;6.82;1.38;;;16.30;67.70;;;;;;4994143;28;20034;-71
2024/03/17 10:29:24;;;;;;;4.63;1.30;;;16.20;69.10;;;;;;4996916;28;20038;-70
2024/03/17 10:31:59;;;;;;;10.30;1.45;;;15.80;69.90;;;;;;4991130;28;20034;-70
2024/03/17 10:34:26;;;;;;;6.15;1.10;;;15.30;70.10;;;;;;4988626;28;20022;-69
2024/03/17 10:37:12;;;;;;;9.60;2.17;;;15.60;69.70;;;;;;4993158;28;20034;-70
2024/03/17 10:39:39;;;;;;;4.70;1.45;;;16.80;67.20;;;;;;4986507;28;20034;-71
2024/03/17 10:42:07;;;;;;;6.85;1.30;;;18.20;63.50;;;;;;4994986;28;20592;-70
2024/03/17 10:44:38;;;;;;;17.13;2.72;;;18.60;59.50;;;;;;4996286;28;20083;-71
2024/03/17 10:47:11;;;;;;;9.52;1.35;;;19.60;60.00;;;;;;5009751;28;20118;-70
2024/03/17 10:49:38;;;;;;;9.68;1.17;;;20.50;54.60;;;;;;4999596;28;20057;-71
2024/03/17 10:52:10;;;;;;;6.18;0.93;;;20.30;55.40;;;;;;4998233;28;20034;-71
2024/03/17 10:54:37;;;;;;;4.82;1.42;;;19.00;55.60;;;;;;4993099;28;20071;-70
2024/03/17 10:57:33;;;;;;;6.32;1.58;;;17.70;58.40;;;;;;4992427;28;20757;-69
2024/03/17 11:00:04;;;;;;;5.05;1.02;;;16.60;60.40;;;;;;4993794;28;20038;-69
2024/03/17 11:02:32;;;;;;;4.07;0.82;;;17.20;61.80;;;;;;4994253;28;20453;-70
2024/03/17 11:05:02;;;;;;;8.00;1.45;;;18.70;57.70;;;;;;4994149;28;20759;-71
2024/03/17 11:07:31;;;;;;;12.02;4.68;;;19.90;54.70;;;;;;4994066;28;20038;-71
2024/03/17 11:09:59;;;;;;;7.13;2.05;;;20.40;52.60;;;;;;4994100;28;20394;-70
2024/03/17 11:12:40;;;;;;;6.75;1.45;;;19.70;54.10;;;;;;4988658;28;20026;-70
2024/03/17 11:15:29;;;;;;;5.53;1.08;;;18.20;54.30;;;;;;4995295;28;20034;-69
2024/03/17 11:18:19;;;;;;;7.05;1.10;;;17.30;57.00;;;;;;4995766;28;20465;-70
2024/03/17 11:21:20;;;;;;;3.55;0.77;;;17.20;56.00;;;;;;4990620;28;20030;-69
2024/03/17 11:24:17;;;;;;;8.27;1.10;;;16.60;55.90;;;;;;4997504;28;20109;-69
2024/03/17 11:26:43;;;;;;;10.27;2.88;;;15.60;58.20;;;;;;4990831;28;20244;-70
2024/03/17 11:29:27;;;;;;;6.85;1.83;;;15.00;63.20;;;;;;4991276;28;20034;-70
2024/03/17 11:31:55;;;;;;;7.55;1.55;;;14.90;64.40;;;;;;4999805;28;20025;-69
2024/03/17 11:34:35;;;;;;;6.07;2.08;;;14.90;63.10;;;;;;4998145;28;20034;-71
2024/03/17 11:37:08;;;;;;;4.35;0.93;;;15.10;66.70;;;;;;4992850;28;20030;-69
2024/03/17 11:39:57;;;;;;;7.30;1.33;;;15.30;65.10;;;;;;4991550;28;20041;-71
2024/03/17 11:42:25;;;;;;;6.78;1.23;;;15.60;64.90;;;;;;4994355;28;20057;-70
2024/03/17 11:44:59;;;;;;;6.05;1.08;;;15.70;65.20;;;;;;4997563;28;20045;-69
2024/03/17 11:47:36;;;;;;;5.03;0.85;;;15.80;62.50;;;;;;5006142;28;20087;-70
2024/03/17 11:50:04;;;;;;;5.63;1.33;;;15.80;62.30;;;;;;5000993;28;20688;-70
2024/03/17 11:52:30;;;;;;;4.85;1.13;;;15.70;62.80;;;;;;4985638;28;20026;-69
2024/03/17 11:54:56;;;;;;;6.30;1.20;;;15.40;61.10;;;;;;4994225;28;20382;-69
2024/03/17 11:57:24;;;;;;;5.53;1.40;;;15.30;62.70;;;;;;5005825;28;20474;-70
2024/03/17 11:59:51;;;;;;;14.27;2.00;;;15.30;61.00;;;;;;4992903;28;20673;-69
2024/03/17 12:02:25;;;;;;;6.97;2.72;;;15.30;62.30;;;;;;4988976;28;20030;-68
2024/03/17 12:04:58;;;;;;;5.25;1.48;;;15.20;62.00;;;;;;4991207;28;20053;-66
2024/03/17 12:07:24;;;;;;;3.20;1.02;;;15.00;62.60;;;;;;4998230;28;20038;-69
2024/03/17 12:09:53;;;;;;;6.78;2.15;;;15.00;64.00;;;;;;4992326;28;20062;-69
2024/03/17 12:12:20;;;;;;;6.97;2.60;;;15.00;62.80;;;;;;4996400;28;20558;-69
2024/03/17 12:14:50;;;;;;;4.70;1.27;;;15.10;63.60;;;;;;4989680;28;20041;-70
2024/03/17 12:17:21;;;;;;;3.92;0.82;;;15.20;63.60;;;;;;4992694;28;20506;-70
2024/03/17 12:19:48;;;;;;;7.78;1.05;;;15.30;62.80;;;;;;4991613;28;20132;-71
2024/03/17 12:22:22;;;;;;;3.45;1.02;;;15.20;62.70;;;;;;4989941;28;20044;-69
2024/03/17 12:24:53;;;;;;;4.00;0.95;;;15.10;64.60;;;;;;4999307;28;20037;-69
2024/03/17 12:27:23;;;;;;;8.57;0.98;;;15.00;63.10;;;;;;4990910;28;20124;-71
2024/03/17 12:29:51;;;;;;;3.55;1.00;;;14.90;62.30;;;;;;4992205;28;20036;-70
2024/03/17 12:32:23;;;;;;;3.88;0.85;;;14.90;62.00;;;;;;4991283;28;20565;-70
2024/03/17 12:34:57;;;;;;;6.38;0.88;;;15.00;64.90;;;;;;4992037;28;20036;-70
2024/03/17 12:37:33;;;;;;;6.70;1.08;;;15.00;63.20;;;;;;4994266;28;20038;-70
2024/03/17 12:40:02;;;;;;;5.70;1.35;;;14.80;60.90;;;;;;4996074;28;20092;-70
2024/03/17 12:42:29;;;;;;;4.40;1.00;;;14.70;62.10;;;;;;4997117;28;20462;-70
2024/03/17 12:44:57;;;;;;;2.42;0.80;;;14.70;61.00;;;;;;5001608;28;20022;-69
2024/03/17 12:47:23;;;;;;;5.38;1.10;;;14.50;60.80;;;;;;4999217;28;20034;-69
2024/03/17 12:49:54;;;;;;;5.50;1.27;;;14.40;62.60;;;;;;4999392;28;20045;-70
2024/03/17 12:52:24;;;;;;;5.05;0.80;;;14.30;63.20;;;;;;4997820;28;20109;-69
2024/03/17 13:00:37;;;;;;;2.47;0.70;;;14.00;61.80;;;;;;5001445;28;20065;-70
2024/03/17 13:03:04;;;;;;;6.85;0.80;;;14.10;61.40;;;;;;4994086;28;20513;-69
2024/03/17 13:05:31;;;;;;;7.55;1.20;;;14.10;63.30;;;;;;4996635;28;20833;-68